CLR2 weather

Public forecast

Using degrees Celsius for public forecast. Weather courtesy of forecast.io.

Closest aviation weather report (METAR) to Lake Rosseau/John's Bay Seaplane Base

Closest report is Muskoka Airport, 17.1 nm (31.7 km) SE. Retrieved 2020/08/14 14:00 UTC (7 minutes ago):

CYQA 141400Z AUTO 11004KT 9SM CLR 25/15 A3017 RMK SLP215 DENSITY ALT 1900FT

Closest aviation forecast (TAF) to Lake Rosseau/John's Bay Seaplane Base

Closest forecast is Muskoka Airport, 17.1 nm (31.7 km) SE. Retrieved 2020/08/14 14:42 UTC (0 seconds ago):

TAF CYQA 141338Z 1414/1502 10005KT P6SM SKC FM141700 07008KT P6SM FEW060 RMK FCST BASED ON AUTO OBS NXT FCST BY 142000Z